Station: Oenpelli Airport

  Atmospheric Gas Attenuation - ITU Rec 676-11   --------------- db/100km ---------------
Date Time Temp RH % AH g/m3 Dew Point Wind Direction Speed kph Gust kph Barometer mB Rainfall Since 9am 24GHz 47GHz 76GHz 122GHz 134GHz 241GHz
11 21:50 28.2 89 24.47 26.2 4 4 1013.1 0 52.2 49.2 100.5 266.1 301.6 1048.0
11 21:40 28.4 86 23.91 25.8 4 4 1013.1 0 51.0 47.9 97.3 257.8 291.5 1012.9
11 21:30 28.5 86 24.04 25.9 4 6 1010.6 0 51.3 48.0 97.7 258.7 292.7 1017.4
11 21:20 28.7 85 24.02 25.9 4 6 1013.1 0 51.2 47.9 97.5 258.2 292.1 1015.1
11 21:10 28.7 84 23.74 25.7 4 4 1013.1 0 50.6 47.4 96.1 254.4 287.5 999.1
11 21:00 28.9 82 23.43 25.5 6 7 1010.3 0 49.9 46.5 94.1 249.1 281.1 977.2
11 20:50 29 82 23.56 25.6 7 9 1013.1 0 50.2 46.8 94.8 251.0 283.4 985.0
11 20:40 29 84 24.13 26 6 7 1013.1 0 51.4 48.0 97.7 258.6 292.7 1017.3
11 20:30 29.1 84 24.26 26.1 6 7 1009.9 0 51.7 48.0 97.9 259.5 293.8 1021.3
11 20:20 29.4 83 24.37 26.2 2 4 1013.1 0 51.8 48.2 98.3 260.5 295.1 1025.5
11 20:10 29.5 81 23.91 25.9 4 4 1013.1 0 50.8 47.2 95.9 254.0 287.1 998.1
11 20:00 29.5 81 23.91 25.9 6 9 1009.4 0 50.9 47.1 95.6 253.3 286.5 995.7
11 19:50 29.6 80 23.74 25.9 7 11 1013.1 0 50.5 46.8 94.9 251.4 284.0 987.2
11 19:40 29.7 80 23.87 26 6 7 1013.1 0 50.7 47.1 95.4 252.8 285.7 993.2
11 19:30 29.6 80 23.74 25.8 7 13 1009 0 50.5 46.7 94.6 250.7 283.3 984.6
11 19:20 30 78 23.66 25.7 7 11 1013.1 0 50.2 46.5 94.0 249.0 281.2 977.5
11 19:10 30.3 78 24.04 26 7 9 1013.1 0 51.0 47.0 95.5 253.0 286.1 994.7
11 19:00 30.1 79 24.09 26.1 2 4 1008.3 0 51.2 47.0 95.7 253.5 286.8 997.1
11 18:50 30.3 74 22.81 25.3 4 4 1013.1 0 48.4 44.6 89.5 237.0 266.6 926.8
11 18:40 30.9 74 23.56 25.9 2 2 1013.1 0 49.9 45.8 92.4 244.8 276.2 960.3
11 18:30 31.4 67 21.91 24.5 2 4 1007.8 0 46.4 42.1 83.7 221.6 248.1 862.7
11 18:20 31.9 67 22.51 25.2 4 4 1013.1 0 47.6 43.2 86.2 228.4 256.4 891.5
11 18:10 32.2 65 22.19 25 4 6 1013.1 0 46.9 42.5 84.4 223.5 250.5 871.2
11 18:00 32.9 61 21.61 24.6 4 6 1007.7 0 45.6 40.8 80.7 213.6 238.8 830.5
11 17:50 33.4 59 21.46 24.5 4 6 1013.1 0 45.2 40.5 79.8 211.3 235.9 820.5
11 17:40 33.6 57 20.95 24.1 6 6 1013.1 0 44.1 39.5 77.4 204.8 227.9 792.8
11 17:30 33.5 54 19.74 23.2 6 9 1007.5 0 41.7 37.3 71.9 190.3 210.3 731.5
11 17:20 33.9 55 20.54 23.8 6 9 1013.1 0 43.2 38.7 75.3 199.3 221.2 769.5
11 17:10 33.8 55 20.43 23.7 7 11 1013.1 0 43.0 38.5 74.9 198.3 219.9 765.1
11 17:00 33.8 55 20.43 23.5 7 11 1007.4 0 43.1 38.3 74.5 197.4 219.1 762.1
11 16:50 34.3 56 21.35 24.5 7 11 1013.1 0 44.9 39.9 78.4 207.6 231.5 805.4
11 16:40 34.1 54 20.38 23.7 7 7 1013.1 0 42.9 38.3 74.4 196.9 218.4 759.7
11 16:30 34.5 54 20.81 24.1 7 11 1007.3 0 43.8 38.6 75.5 199.9 222.4 773.7
11 16:20 34.4 52 19.93 23.4 7 9 1013.1 0 41.9 37.4 72.2 191.1 211.3 735.0
11 16:10 34.3 52 19.83 23.3 7 11 1013.1 0 41.7 37.3 71.9 190.2 210.2 731.1
11 16:00 34.6 52 20.14 23.6 6 9 1007.2 0 42.4 37.4 72.5 192.1 212.7 740.2
11 15:50 34.7 53 20.64 24 6 7 1013.1 0 43.4 38.5 74.9 198.4 220.3 766.4
11 15:40 34.4 51 19.55 22.8 7 9 1013.1 0 41.1 36.8 70.6 186.8 206.0 716.8
11 15:30 34.5 51 19.65 23.2 6 7 1007.3 0 41.4 36.7 70.6 186.8 206.3 717.8
11 15:20 34.4 52 19.93 23.4 6 7 1013.1 0 41.9 37.4 72.2 191.1 211.3 735.0
11 15:10 34.2 55 20.86 24.1 4 6 1013.1 0 43.9 39.1 76.4 202.2 224.8 782.2
11 15:00 34.2 55 20.86 23.9 7 13 1007.5 0 43.9 38.9 76.0 201.3 224.0 779.2
11 14:50 34.3 53 20.21 23.6 6 6 1013.1 0 42.5 37.9 73.5 194.5 215.4 749.4
11 14:40 34.2 55 20.86 24.1 6 9 1013.1 0 43.9 39.1 76.4 202.2 224.8 782.2
11 14:30 34 55 20.65 23.7 4 9 1008 0 43.5 38.6 75.3 199.5 221.7 771.2
11 14:20 33.8 54 20.06 23.4 4 6 1013.1 0 42.3 37.9 73.3 194.0 214.7 747.0
11 14:10 33.9 53 19.79 23.2 7 11 1013.1 0 41.7 37.4 72.1 190.7 210.7 733.0
11 14:00 33.9 54 20.16 23.3 6 9 1008.5 0 42.5 37.8 73.4 194.2 215.2 748.5
11 13:50 33.5 55 20.11 23.5 4 6 1013.1 0 42.4 38.1 73.8 195.3 216.3 752.3
11 13:40 33.7 57 21.06 24.2 6 6 1013.1 0 44.3 39.7 77.7 205.8 229.2 797.2
11 13:30 33.5 57 20.84 23.8 6 9 1008.9 0 43.9 39.2 76.7 203.1 226.0 786.1
11 13:20 33.5 57 20.84 23.8 4 4 1013.1 0 43.9 39.4 77.0 203.8 226.6 788.3
11 13:10 33.2 54 19.43 22.9 6 7 1013.1 0 41.0 37.1 71.2 188.3 207.6 722.1
11 13:00 33.4 56 20.37 23.7 6 13 1009.4 0 43.0 38.5 74.8 198.0 219.7 764.1
11 12:50 33.1 55 19.69 23.1 6 7 1013.1 0 41.6 37.6 72.4 191.5 211.5 735.7
11 12:40 33.4 58 21.1 24.2 0 2 1013.1 0 44.5 39.9 78.2 207.1 230.7 802.3
11 12:30 33.2 55 19.79 23.2 2 6 1009.8 0 41.8 37.6 72.5 191.9 212.1 737.9
11 12:20 32.2 57 19.45 22.8 6 6 1013.1 0 41.2 37.5 72.2 191.0 210.6 732.5
11 12:10 32.4 58 20.01 23.3 2 2 1013.1 0 42.3 38.4 74.4 197.0 218.0 758.2
11 12:00 32 58 19.59 22.7 4 7 1010.4 0 41.5 37.8 72.8 192.7 212.8 739.9
11 11:50 31.9 60 20.15 23.4 2 4 1013.1 0 42.6 38.9 75.5 199.9 221.4 770.1
11 11:40 31.9 60 20.15 23.4 4 6 1013.1 0 42.6 38.9 75.5 199.9 221.4 770.1
11 11:30 31.8 62 20.72 23.6 4 9 1010.8 0 43.9 39.9 78.0 206.5 229.6 798.6
11 11:20 31.4 60 19.62 22.9 0 2 1013.1 0 41.6 38.2 73.7 195.0 215.3 748.6
11 11:10 31.5 60 19.73 23 2 4 1013.1 0 41.8 38.3 74.1 196.0 216.6 753.1
11 11:00 31.5 61 20.06 23.3 4 7 1011.2 0 42.5 38.9 75.4 199.6 221.0 768.6
11 10:50 31.3 61 19.84 23.1 2 4 1013.1 0 42.1 38.6 74.7 197.8 218.7 760.5
11 10:40 31.1 66 21.24 24 4 6 1013.1 0 45.0 41.3 81.2 215.1 239.9 834.1
11 10:30 31.2 66 21.35 24.1 4 7 1011.4 0 45.2 41.3 81.5 215.9 240.9 837.7
11 10:20 30.9 66 21.01 24 4 4 1013.1 0 44.6 40.9 80.4 212.8 237.1 824.3
11 10:10 31.4 67 21.91 24.5 0 0 1013.1 0 46.4 42.4 84.0 222.4 248.9 865.7
11 10:00 30.7 69 21.73 24.4 2 4 1011.6 0 46.1 42.3 83.8 222.0 248.3 863.3
11 09:50 30.6 71 22.24 24.7 2 2 1013.1 0 47.2 43.4 86.4 228.9 256.7 892.5
11 09:40 30.2 70 21.46 24.3 4 4 1013.1 0 45.6 42.1 83.2 220.4 246.1 855.6
11 09:30 30.7 70 22.05 24.6 2 4 1011.7 0 46.8 42.9 85.3 226.0 253.2 880.3
11 09:20 29.9 68 20.51 23.5 4 6 1013.1 0 43.6 40.5 79.2 209.5 232.7 809.1
11 09:10 29.7 69 20.59 23.6 2 4 1013.1 0 43.8 40.7 79.7 211.1 234.5 815.4
11 09:00 29.6 74 21.96 24.5 2 6 1011.6 0 46.7 43.3 86.2 228.1 255.5 888.3
11 08:50 29.1 75 21.66 24.2 2 4 1013.1 0.6 46.1 43.1 85.4 226.1 252.8 878.9
11 08:40 29.3 76 22.19 24.6 4 6 1013.1 0.6 47.2 44.0 87.7 232.2 260.4 905.2
11 08:30 28.6 75 21.08 23.9 4 6 1011.5 0.6 45.0 42.1 83.1 220.0 245.3 852.5
11 08:20 29.1 82 23.68 25.7 0 2 1013.1 0.6 50.4 47.0 95.3 252.3 284.9 990.4
11 08:10 28.3 85 23.5 25.5 2 2 1013.1 0.6 50.1 47.1 95.4 252.6 285.1 990.8
11 08:00 27.8 88 23.67 25.6 2 2 1011.5 0.6 50.6 47.7 96.8 256.3 289.6 1006.2
11 07:50 26.9 93 23.8 25.6 2 2 1013.1 0.6 51.0 48.6 98.7 261.5 295.6 1027.1
11 07:40 26.4 98 24.4 26 2 4 1013.1 0.6 52.3 50.1 102.6 271.6 307.9 1069.7
11 07:30 25.9 100 24.21 25.9 0 0 1011.2 0.6 52.0 49.9 102.1 270.5 306.4 1064.3
11 07:20 25.3 100 23.41 25.3 2 2 1013.1 0.6 50.3 48.7 98.9 261.8 295.5 1026.4
11 07:10 24.9 99 22.66 24.7 0 0 1013.1 0.6 48.8 47.4 95.5 252.8 284.3 987.6
11 07:00 24.6 99 22.28 24.4 0 0 1010.7 0.6 48.0 46.6 93.7 248.1 278.6 967.8
11 06:50 24.4 99 22.03 24.2 0 0 1013.1 0.6 47.5 46.4 92.8 245.8 275.6 957.3
11 06:40 24.3 99 21.91 24.1 0 0 1013.1 0.6 47.3 46.2 92.4 244.5 274.0 951.6
11 06:30 24.4 99 22.03 24.2 0 0 1010.3 0.6 47.5 46.2 92.6 245.3 275.1 955.5
11 06:20 24.3 99 21.91 24.1 0 0 1013.1 0.6 47.3 46.2 92.4 244.5 274.0 951.6
11 06:10 24.4 99 22.03 24.2 0 0 1013.1 0.6 47.5 46.4 92.8 245.8 275.6 957.3
11 06:00 24.4 99 22.03 24.2 0 0 1010.1 0.6 47.5 46.2 92.6 245.2 275.1 955.4
11 05:50 24.5 99 22.16 24.3 0 0 1013.1 0.6 47.8 46.6 93.4 247.2 277.4 963.6
11 05:40 24.5 99 22.16 24.3 0 0 1013.1 0.6 47.8 46.6 93.4 247.2 277.4 963.6
11 04:50 24.7 99 22.41 24.5 0 0 1013.1 0.6 48.3 47.0 94.4 250.0 280.9 975.6
11 04:40 24.7 98 22.18 24.3 0 0 1013.1 0.6 47.8 46.5 93.2 246.8 277.0 962.1

Last Refresh: 11-Apr-2021 22:02:32

Bureau of Meteorology